Terminal Aerodrome Forecast
Issued by NWS Sioux Falls, SD

Home | Current Version | Previous Version | Graphics & Text | Print | Product List | Glossary On
Versions: 1 2 3 4 5 6 7 8 9 10 11 12 13 14
062
FTUS43 KFSD 221734 AAB
TAFFSD
TAF AMD
KFSD 221734Z 2218/2318 15017G25KT P6SM OVC070
     FM231100 16012G21KT P6SM OVC025
     FM231200 16013G21KT P6SM OVC015
     FM231500 16013G20KT P6SM OVC008=

USA.gov is the U.S. government's official web portal to all federal, state and local government web resources and services.